sensor_id;sensor_type;location;lat;lon;timestamp;pressure;altitude;pressure_sealevel;temperature;humidity
3150;BME280;32503;47.748;8.960;2023-04-01T00:02:13;95874.47;;;10.19;66.82
3150;BME280;32503;47.748;8.960;2023-04-01T00:04:40;95876.81;;;10.21;67.15
3150;BME280;32503;47.748;8.960;2023-04-01T00:07:07;95876.78;;;10.17;67.65
3150;BME280;32503;47.748;8.960;2023-04-01T00:09:35;95873.75;;;10.22;68.00
3150;BME280;32503;47.748;8.960;2023-04-01T00:12:03;95882.94;;;10.14;68.32
3150;BME280;32503;47.748;8.960;2023-04-01T00:14:30;95882.81;;;10.00;68.34
3150;BME280;32503;47.748;8.960;2023-04-01T00:16:57;95890.16;;;9.99;68.59
3150;BME280;32503;47.748;8.960;2023-04-01T00:19:24;95886.69;;;9.99;69.32
3150;BME280;32503;47.748;8.960;2023-04-01T00:21:51;95885.88;;;9.95;69.22
3150;BME280;32503;47.748;8.960;2023-04-01T00:24:19;95875.75;;;9.84;69.94
3150;BME280;32503;47.748;8.960;2023-04-01T00:26:47;95889.66;;;9.83;70.00
3150;BME280;32503;47.748;8.960;2023-04-01T00:29:14;95890.81;;;9.85;70.45
3150;BME280;32503;47.748;8.960;2023-04-01T00:31:41;95887.78;;;9.91;70.24
3150;BME280;32503;47.748;8.960;2023-04-01T00:34:08;95893.53;;;9.89;70.22
3150;BME280;32503;47.748;8.960;2023-04-01T00:36:35;95902.81;;;9.92;70.47
3150;BME280;32503;47.748;8.960;2023-04-01T00:39:02;95896.94;;;9.82;71.30
3150;BME280;32503;47.748;8.960;2023-04-01T00:41:29;95879.16;;;9.74;71.20
3150;BME280;32503;47.748;8.960;2023-04-01T00:44:16;95884.94;;;9.73;71.80
3150;BME280;32503;47.748;8.960;2023-04-01T00:46:43;95880.66;;;9.72;71.39
3150;BME280;32503;47.748;8.960;2023-04-01T00:49:11;95881.44;;;9.72;71.53
3150;BME280;32503;47.748;8.960;2023-04-01T00:51:39;95871.78;;;9.67;71.30
3150;BME280;32503;47.748;8.960;2023-04-01T00:54:09;95882.56;;;9.67;71.53
3150;BME280;32503;47.748;8.960;2023-04-01T00:56:39;95873.69;;;9.67;71.46
3150;BME280;32503;47.748;8.960;2023-04-01T00:59:11;95875.63;;;9.70;70.80
3150;BME280;32503;47.748;8.960;2023-04-01T01:01:41;95868.25;;;9.63;71.44
3150;BME280;32503;47.748;8.960;2023-04-01T01:04:22;95867.84;;;9.61;71.08
3150;BME280;32503;47.748;8.960;2023-04-01T01:07:02;95883.34;;;9.68;71.03
3150;BME280;32503;47.748;8.960;2023-04-01T01:09:43;95884.13;;;9.72;71.21
3150;BME280;32503;47.748;8.960;2023-04-01T01:12:17;95891.81;;;9.70;70.81
3150;BME280;32503;47.748;8.960;2023-04-01T01:14:55;95894.53;;;9.70;71.37
3150;BME280;32503;47.748;8.960;2023-04-01T01:17:36;95887.25;;;9.74;71.09
3150;BME280;32503;47.748;8.960;2023-04-01T01:20:40;95892.69;;;9.78;71.37
3150;BME280;32503;47.748;8.960;2023-04-01T01:23:32;95874.09;;;9.69;70.85
3150;BME280;32503;47.748;8.960;2023-04-01T01:29:33;95875.53;;;9.59;70.82
3150;BME280;32503;47.748;8.960;2023-04-01T01:32:11;95871.69;;;9.57;70.70
3150;BME280;32503;47.748;8.960;2023-04-01T01:34:50;95880.09;;;9.52;71.40
3150;BME280;32503;47.748;8.960;2023-04-01T01:37:25;95865.41;;;9.49;71.33
3150;BME280;32503;47.748;8.960;2023-04-01T01:39:57;95864.66;;;9.48;71.53
3150;BME280;32503;47.748;8.960;2023-04-01T01:42:26;95859.59;;;9.43;71.64
3150;BME280;32503;47.748;8.960;2023-04-01T01:44:57;95862.22;;;9.36;72.27
3150;BME280;32503;47.748;8.960;2023-04-01T01:47:27;95866.09;;;9.39;72.13
3150;BME280;32503;47.748;8.960;2023-04-01T01:49:56;95838.75;;;9.40;71.77
3150;BME280;32503;47.748;8.960;2023-04-01T01:52:27;95838.38;;;9.42;72.57
3150;BME280;32503;47.748;8.960;2023-04-01T01:54:57;95837.63;;;9.41;72.27
3150;BME280;32503;47.748;8.960;2023-04-01T01:57:28;95828.69;;;9.34;72.94
3150;BME280;32503;47.748;8.960;2023-04-01T02:00:00;95837.63;;;9.41;72.53
3150;BME280;32503;47.748;8.960;2023-04-01T02:02:30;95837.66;;;9.45;71.99
3150;BME280;32503;47.748;8.960;2023-04-01T02:04:58;95832.28;;;9.48;71.80
3150;BME280;32503;47.748;8.960;2023-04-01T02:07:31;95835.69;;;9.42;71.95
3150;BME280;32503;47.748;8.960;2023-04-01T02:10:00;95838.34;;;9.38;71.58
3150;BME280;32503;47.748;8.960;2023-04-01T02:12:27;95838.44;;;9.49;71.39
3150;BME280;32503;47.748;8.960;2023-04-01T02:14:59;95834.63;;;9.54;71.14
3150;BME280;32503;47.748;8.960;2023-04-01T02:17:32;95842.59;;;9.39;70.97
3150;BME280;32503;47.748;8.960;2023-04-01T02:20:04;95836.94;;;9.52;70.75
3150;BME280;32503;47.748;8.960;2023-04-01T02:22:38;95848.09;;;9.50;70.73
3150;BME280;32503;47.748;8.960;2023-04-01T02:25:10;95838.06;;;9.51;70.22
3150;BME280;32503;47.748;8.960;2023-04-01T02:27:39;95829.91;;;9.43;70.20
3150;BME280;32503;47.748;8.960;2023-04-01T02:30:09;95848.88;;;9.51;70.25
3150;BME280;32503;47.748;8.960;2023-04-01T02:32:37;95850.03;;;9.49;70.65
3150;BME280;32503;47.748;8.960;2023-04-01T02:35:08;95852.22;;;9.40;71.05
3150;BME280;32503;47.748;8.960;2023-04-01T02:37:38;95841.88;;;9.42;70.90
3150;BME280;32503;47.748;8.960;2023-04-01T02:40:11;95854.19;;;9.43;70.62
3150;BME280;32503;47.748;8.960;2023-04-01T02:42:39;95840.63;;;9.33;70.96
3150;BME280;32503;47.748;8.960;2023-04-01T02:45:07;95844.09;;;9.37;70.72
3150;BME280;32503;47.748;8.960;2023-04-01T02:47:35;95849.97;;;9.42;71.21
3150;BME280;32503;47.748;8.960;2023-04-01T02:50:03;95847.28;;;9.42;71.08
3150;BME280;32503;47.748;8.960;2023-04-01T02:52:30;95843.34;;;9.36;70.96
3150;BME280;32503;47.748;8.960;2023-04-01T02:54:59;95844.06;;;9.33;71.31
3150;BME280;32503;47.748;8.960;2023-04-01T02:57:26;95843.69;;;9.31;71.45
3150;BME280;32503;47.748;8.960;2023-04-01T02:59:53;95838.28;;;9.31;71.27
3150;BME280;32503;47.748;8.960;2023-04-01T03:02:20;95847.56;;;9.34;71.79
3150;BME280;32503;47.748;8.960;2023-04-01T03:04:47;95837.53;;;9.34;71.76
3150;BME280;32503;47.748;8.960;2023-04-01T03:07:14;95834.09;;;9.34;71.33
3150;BME280;32503;47.748;8.960;2023-04-01T03:09:42;95838.75;;;9.40;70.86
3150;BME280;32503;47.748;8.960;2023-04-01T03:12:11;95836.13;;;9.47;70.39
3150;BME280;32503;47.748;8.960;2023-04-01T03:14:38;95831.50;;;9.48;70.31
3150;BME280;32503;47.748;8.960;2023-04-01T03:17:05;95825.72;;;9.46;70.18
3150;BME280;32503;47.748;8.960;2023-04-01T03:19:32;95839.97;;;9.46;70.19
3150;BME280;32503;47.748;8.960;2023-04-01T03:21:59;95834.59;;;9.46;69.80
3150;BME280;32503;47.748;8.960;2023-04-01T03:24:26;95842.34;;;9.52;69.53
3150;BME280;32503;47.748;8.960;2023-04-01T03:26:53;95843.84;;;9.49;69.70
3150;BME280;32503;47.748;8.960;2023-04-01T03:29:22;95846.91;;;9.47;69.55
3150;BME280;32503;47.748;8.960;2023-04-01T03:31:49;95850.78;;;9.46;69.42
3150;BME280;32503;47.748;8.960;2023-04-01T03:34:16;95844.97;;;9.44;69.96
3150;BME280;32503;47.748;8.960;2023-04-01T03:36:43;95853.47;;;9.46;69.61
3150;BME280;32503;47.748;8.960;2023-04-01T03:39:10;95843.88;;;9.53;68.64
3150;BME280;32503;47.748;8.960;2023-04-01T03:41:37;95836.97;;;9.55;68.70
3150;BME280;32503;47.748;8.960;2023-04-01T03:44:05;95843.06;;;9.48;68.79
3150;BME280;32503;47.748;8.960;2023-04-01T03:46:33;95820.00;;;9.55;67.67
3150;BME280;32503;47.748;8.960;2023-04-01T03:49:00;95823.72;;;9.39;68.07
3150;BME280;32503;47.748;8.960;2023-04-01T03:51:27;95817.59;;;9.42;68.07
3150;BME280;32503;47.748;8.960;2023-04-01T03:53:55;95815.31;;;9.48;67.81
3150;BME280;32503;47.748;8.960;2023-04-01T03:56:22;95826.56;;;9.54;67.60
3150;BME280;32503;47.748;8.960;2023-04-01T03:58:49;95827.69;;;9.53;67.66
3150;BME280;32503;47.748;8.960;2023-04-01T04:01:18;95827.72;;;9.56;67.16
3150;BME280;32503;47.748;8.960;2023-04-01T04:03:48;95825.78;;;9.53;67.63
3150;BME280;32503;47.748;8.960;2023-04-01T04:06:17;95833.88;;;9.53;67.23
3150;BME280;32503;47.748;8.960;2023-04-01T04:08:44;95834.44;;;9.32;67.80
3150;BME280;32503;47.748;8.960;2023-04-01T04:11:12;95834.91;;;9.41;67.51
3150;BME280;32503;47.748;8.960;2023-04-01T04:13:39;95829.16;;;9.43;67.27
3150;BME280;32503;47.748;8.960;2023-04-01T04:16:06;95839.97;;;9.46;67.21
3150;BME280;32503;47.748;8.960;2023-04-01T04:18:34;95846.09;;;9.43;67.21
3150;BME280;32503;47.748;8.960;2023-04-01T04:21:03;95835.31;;;9.43;67.64
3150;BME280;32503;47.748;8.960;2023-04-01T04:23:30;95839.25;;;9.49;67.38
3150;BME280;32503;47.748;8.960;2023-04-01T04:26:02;95844.59;;;9.46;67.63
3150;BME280;32503;47.748;8.960;2023-04-01T04:28:30;95836.06;;;9.40;67.45
3150;BME280;32503;47.748;8.960;2023-04-01T04:30:58;95841.44;;;9.40;67.47
3150;BME280;32503;47.748;8.960;2023-04-01T04:33:25;95852.56;;;9.35;67.74
3150;BME280;32503;47.748;8.960;2023-04-01T04:35:55;95843.00;;;9.41;68.39
3150;BME280;32503;47.748;8.960;2023-04-01T04:38:24;95846.84;;;9.40;68.46
3150;BME280;32503;47.748;8.960;2023-04-01T04:40:52;95859.19;;;9.41;67.98
3150;BME280;32503;47.748;8.960;2023-04-01T04:43:19;95855.25;;;9.35;68.57
3150;BME280;32503;47.748;8.960;2023-04-01T04:45:46;95867.53;;;9.29;68.33
3150;BME280;32503;47.748;8.960;2023-04-01T04:48:16;95871.84;;;9.34;68.07
3150;BME280;32503;47.748;8.960;2023-04-01T04:50:44;95862.88;;;9.26;68.23
3150;BME280;32503;47.748;8.960;2023-04-01T04:53:12;95867.22;;;9.34;67.78
3150;BME280;32503;47.748;8.960;2023-04-01T04:55:44;95869.84;;;9.27;67.77
3150;BME280;32503;47.748;8.960;2023-04-01T04:58:12;95867.53;;;9.29;67.73
3150;BME280;32503;47.748;8.960;2023-04-01T05:00:39;95864.03;;;9.25;67.31
3150;BME280;32503;47.748;8.960;2023-04-01T05:03:07;95860.13;;;9.19;67.86
3150;BME280;32503;47.748;8.960;2023-04-01T05:05:34;95863.66;;;9.26;67.95
3150;BME280;32503;47.748;8.960;2023-04-01T05:08:01;95867.16;;;9.27;67.72
3150;BME280;32503;47.748;8.960;2023-04-01T05:10:28;95860.56;;;9.24;67.89
3150;BME280;32503;47.748;8.960;2023-04-01T05:12:57;95861.75;;;9.27;68.69
3150;BME280;32503;47.748;8.960;2023-04-01T05:15:25;95873.28;;;9.24;69.01
3150;BME280;32503;47.748;8.960;2023-04-01T05:17:52;95865.19;;;9.24;69.52
3150;BME280;32503;47.748;8.960;2023-04-01T05:22:31;95868.28;;;9.26;69.73
3150;BME280;32503;47.748;8.960;2023-04-01T05:24:58;95872.13;;;9.25;70.33
3150;BME280;32503;47.748;8.960;2023-04-01T05:27:25;95869.84;;;9.27;70.34
3150;BME280;32503;47.748;8.960;2023-04-01T05:29:52;95869.50;;;9.32;70.18
3150;BME280;32503;47.748;8.960;2023-04-01T05:32:19;95865.91;;;9.21;70.15
3150;BME280;32503;47.748;8.960;2023-04-01T05:34:46;95872.22;;;9.32;69.88
3150;BME280;32503;47.748;8.960;2023-04-01T05:37:16;95872.88;;;9.22;69.77
3150;BME280;32503;47.748;8.960;2023-04-01T05:39:45;95854.72;;;9.19;69.24
3150;BME280;32503;47.748;8.960;2023-04-01T05:42:12;95856.78;;;9.33;69.55
3150;BME280;32503;47.748;8.960;2023-04-01T05:44:39;95869.84;;;9.27;69.01
3150;BME280;32503;47.748;8.960;2023-04-01T05:47:06;95877.53;;;9.25;68.47
3150;BME280;32503;47.748;8.960;2023-04-01T05:49:33;95865.56;;;9.26;67.59
3150;BME280;32503;47.748;8.960;2023-04-01T05:52:00;95875.69;;;9.33;67.49
3150;BME280;32503;47.748;8.960;2023-04-01T05:54:27;95866.66;;;9.18;67.44
3150;BME280;32503;47.748;8.960;2023-04-01T05:56:56;95871.41;;;9.32;67.09
3150;BME280;32503;47.748;8.960;2023-04-01T05:59:23;95861.06;;;9.34;67.39
3150;BME280;32503;47.748;8.960;2023-04-01T06:01:50;95868.28;;;9.26;67.04
3150;BME280;32503;47.748;8.960;2023-04-01T06:04:18;95869.91;;;9.34;68.08
3150;BME280;32503;47.748;8.960;2023-04-01T06:06:45;95871.13;;;9.40;67.38
3150;BME280;32503;47.748;8.960;2023-04-01T06:09:16;95863.78;;;9.37;67.61
3150;BME280;32503;47.748;8.960;2023-04-01T06:12:03;95856.16;;;9.46;66.47
3150;BME280;32503;47.748;8.960;2023-04-01T06:14:43;95864.59;;;9.41;66.93
3150;BME280;32503;47.748;8.960;2023-04-01T06:17:26;95864.72;;;9.56;66.77
3150;BME280;32503;47.748;8.960;2023-04-01T06:20:05;95858.66;;;9.66;66.33
3150;BME280;32503;47.748;8.960;2023-04-01T06:23:21;95861.69;;;9.61;65.28
3150;BME280;32503;47.748;8.960;2023-04-01T06:26:18;95864.50;;;9.75;65.24
3150;BME280;32503;47.748;8.960;2023-04-01T06:29:15;95867.53;;;9.70;65.38
3150;BME280;32503;47.748;8.960;2023-04-01T06:35:17;95870.00;;;9.86;65.05
3150;BME280;32503;47.748;8.960;2023-04-01T06:38:05;95874.69;;;9.93;64.75
3150;BME280;32503;47.748;8.960;2023-04-01T06:43:51;95876.63;;;9.96;64.83
3150;BME280;32503;47.748;8.960;2023-04-01T06:46:34;95871.22;;;9.96;65.12
3150;BME280;32503;47.748;8.960;2023-04-01T06:49:29;95879.00;;;10.04;64.64
3150;BME280;32503;47.748;8.960;2023-04-01T06:52:05;95875.91;;;10.02;65.02
3150;BME280;32503;47.748;8.960;2023-04-01T06:54:39;95871.34;;;10.10;64.54
3150;BME280;32503;47.748;8.960;2023-04-01T06:57:21;95861.31;;;10.14;64.44
3150;BME280;32503;47.748;8.960;2023-04-01T06:59:54;95861.28;;;10.07;64.24
3150;BME280;32503;47.748;8.960;2023-04-01T07:02:32;95867.53;;;10.18;64.57
3150;BME280;32503;47.748;8.960;2023-04-01T07:05:01;95864.88;;;10.22;64.93
3150;BME280;32503;47.748;8.960;2023-04-01T07:07:35;95857.25;;;10.35;64.42
3150;BME280;32503;47.748;8.960;2023-04-01T07:10:11;95862.31;;;10.43;64.60
3150;BME280;32503;47.748;8.960;2023-04-01T07:12:47;95861.28;;;10.66;63.69
3150;BME280;32503;47.748;8.960;2023-04-01T07:15:20;95861.00;;;10.86;62.97
3150;BME280;32503;47.748;8.960;2023-04-01T07:17:54;95849.41;;;10.92;62.74
3150;BME280;32503;47.748;8.960;2023-04-01T07:20:26;95864.13;;;10.95;62.38
3150;BME280;32503;47.748;8.960;2023-04-01T07:22:58;95866.44;;;10.96;62.24
3150;BME280;32503;47.748;8.960;2023-04-01T07:25:29;95859.47;;;10.95;62.21
3150;BME280;32503;47.748;8.960;2023-04-01T07:28:02;95861.84;;;11.08;62.04
3150;BME280;32503;47.748;8.960;2023-04-01T07:30:47;95862.56;;;11.01;62.13
3150;BME280;32503;47.748;8.960;2023-04-01T07:33:25;95868.75;;;10.94;62.56
3150;BME280;32503;47.748;8.960;2023-04-01T07:36:03;95856.00;;;10.98;62.45
3150;BME280;32503;47.748;8.960;2023-04-01T07:38:40;95857.94;;;10.98;62.34
3150;BME280;32503;47.748;8.960;2023-04-01T07:41:23;95856.00;;;10.98;63.26
3150;BME280;32503;47.748;8.960;2023-04-01T07:44:02;95872.25;;;11.06;62.98
3150;BME280;32503;47.748;8.960;2023-04-01T07:46:52;95873.47;;;11.12;63.30
3150;BME280;32503;47.748;8.960;2023-04-01T07:49:29;95876.88;;;10.98;61.75
3150;BME280;32503;47.748;8.960;2023-04-01T07:52:04;95873.00;;;11.03;62.85
3150;BME280;32503;47.748;8.960;2023-04-01T07:54:39;95873.47;;;11.12;62.92
3150;BME280;32503;47.748;8.960;2023-04-01T07:57:15;95883.47;;;11.11;63.11
3150;BME280;32503;47.748;8.960;2023-04-01T07:59:55;95893.91;;;11.06;62.70
3150;BME280;32503;47.748;8.960;2023-04-01T08:02:37;95896.22;;;11.04;62.05
3150;BME280;32503;47.748;8.960;2023-04-01T08:05:17;95871.47;;;10.94;63.06
3150;BME280;32503;47.748;8.960;2023-04-01T08:07:50;95888.84;;;10.97;62.46
3150;BME280;32503;47.748;8.960;2023-04-01T08:10:26;95893.47;;;10.96;63.02
3150;BME280;32503;47.748;8.960;2023-04-01T08:13:06;95889.56;;;10.90;62.63
3150;BME280;32503;47.748;8.960;2023-04-01T08:15:45;95864.00;;;10.70;62.76
3150;BME280;32503;47.748;8.960;2023-04-01T08:18:27;95888.00;;;10.82;62.95
3150;BME280;32503;47.748;8.960;2023-04-01T08:21:01;95881.06;;;10.85;63.03
3150;BME280;32503;47.748;8.960;2023-04-01T08:23:33;95882.16;;;10.73;62.74
3150;BME280;32503;47.748;8.960;2023-04-01T08:26:05;95891.81;;;10.74;62.82
3150;BME280;32503;47.748;8.960;2023-04-01T08:28:40;95890.25;;;10.73;62.78
3150;BME280;32503;47.748;8.960;2023-04-01T08:31:13;95882.97;;;10.77;63.60
3150;BME280;32503;47.748;8.960;2023-04-01T08:33:44;95896.13;;;10.82;62.92
3150;BME280;32503;47.748;8.960;2023-04-01T08:36:16;95898.78;;;10.75;62.77
3150;BME280;32503;47.748;8.960;2023-04-01T08:38:51;95896.50;;;10.84;62.25
3150;BME280;32503;47.748;8.960;2023-04-01T08:42:12;95857.34;;;10.49;62.81
3150;BME280;32503;47.748;8.960;2023-04-01T08:45:18;95869.34;;;10.55;62.80
3150;BME280;32503;47.748;8.960;2023-04-01T08:48:08;95894.09;;;10.61;62.35
3150;BME280;32503;47.748;8.960;2023-04-01T08:51:25;95892.16;;;10.61;62.94
3150;BME280;32503;47.748;8.960;2023-04-01T08:54:34;95872.06;;;10.55;62.34
3150;BME280;32503;47.748;8.960;2023-04-01T08:57:08;95878.19;;;10.49;63.03
3150;BME280;32503;47.748;8.960;2023-04-01T08:59:50;95876.09;;;10.28;63.42
3150;BME280;32503;47.748;8.960;2023-04-01T09:02:54;95887.06;;;10.49;63.04
3150;BME280;32503;47.748;8.960;2023-04-01T09:06:06;95888.56;;;10.43;62.14
3150;BME280;32503;47.748;8.960;2023-04-01T09:08:56;95913.25;;;10.41;63.42
3150;BME280;32503;47.748;8.960;2023-04-01T09:11:38;95888.91;;;10.34;63.30
3150;BME280;32503;47.748;8.960;2023-04-01T09:14:35;95900.91;;;10.44;63.08
3150;BME280;32503;47.748;8.960;2023-04-01T09:17:50;95893.00;;;10.17;63.82
3150;BME280;32503;47.748;8.960;2023-04-01T09:20:41;95895.41;;;10.30;64.16
3150;BME280;32503;47.748;8.960;2023-04-01T09:23:31;95891.47;;;10.23;63.99
3150;BME280;32503;47.748;8.960;2023-04-01T09:26:25;95870.81;;;10.42;63.68
3150;BME280;32503;47.748;8.960;2023-04-01T09:29:02;95883.63;;;10.56;62.87
3150;BME280;32503;47.748;8.960;2023-04-01T09:34:53;95900.59;;;10.53;63.59
3150;BME280;32503;47.748;8.960;2023-04-01T09:37:26;95904.78;;;10.43;63.75
3150;BME280;32503;47.748;8.960;2023-04-01T09:40:18;95902.44;;;10.38;63.50
3150;BME280;32503;47.748;8.960;2023-04-01T09:49:13;95888.25;;;10.55;63.14
3150;BME280;32503;47.748;8.960;2023-04-01T09:51:55;95894.88;;;10.69;63.64
3150;BME280;32503;47.748;8.960;2023-04-01T09:54:50;95882.47;;;10.60;63.64
3150;BME280;32503;47.748;8.960;2023-04-01T10:04:25;95882.63;;;10.86;62.56
3150;BME280;32503;47.748;8.960;2023-04-01T10:07:51;95881.47;;;10.94;62.49
3150;BME280;32503;47.748;8.960;2023-04-01T10:11:15;95890.81;;;11.04;62.80
3150;BME280;32503;47.748;8.960;2023-04-01T10:18:01;95881.94;;;11.07;62.27
3150;BME280;32503;47.748;8.960;2023-04-01T10:27:16;95890.53;;;11.41;61.75
3150;BME280;32503;47.748;8.960;2023-04-01T10:30:40;95900.53;;;11.23;61.53
3150;BME280;32503;47.748;8.960;2023-04-01T10:36:52;95902.88;;;11.24;61.76
3150;BME280;32503;47.748;8.960;2023-04-01T10:43:43;95860.31;;;11.14;61.17
3150;BME280;32503;47.748;8.960;2023-04-01T10:47:02;95892.84;;;11.35;60.34
3150;BME280;32503;47.748;8.960;2023-04-01T10:50:24;95897.47;;;11.28;60.58
3150;BME280;32503;47.748;8.960;2023-04-01T10:53:32;95889.75;;;11.37;61.10
3150;BME280;32503;47.748;8.960;2023-04-01T10:56:40;95891.28;;;11.31;61.39
3150;BME280;32503;47.748;8.960;2023-04-01T11:13:58;95899.81;;;11.40;63.42
3150;BME280;32503;47.748;8.960;2023-04-01T11:17:09;95891.66;;;11.29;64.22
3150;BME280;32503;47.748;8.960;2023-04-01T11:20:33;95876.63;;;11.43;64.04
3150;BME280;32503;47.748;8.960;2023-04-01T11:23:59;95887.47;;;11.71;63.88
3150;BME280;32503;47.748;8.960;2023-04-01T11:26:50;95892.13;;;11.74;62.83
3150;BME280;32503;47.748;8.960;2023-04-01T11:29:45;95889.81;;;11.80;62.76
3150;BME280;32503;47.748;8.960;2023-04-01T11:32:29;95878.59;;;11.82;62.24
3150;BME280;32503;47.748;8.960;2023-04-01T11:35:25;95861.63;;;11.92;61.78
3150;BME280;32503;47.748;8.960;2023-04-01T11:38:07;95874.38;;;11.88;61.58
3150;BME280;32503;47.748;8.960;2023-04-01T11:40:47;95895.28;;;12.30;60.62
3150;BME280;32503;47.748;8.960;2023-04-01T11:43:27;95896.41;;;12.37;59.30
3150;BME280;32503;47.748;8.960;2023-04-01T11:46:03;95892.91;;;12.58;59.27
3150;BME280;32503;47.748;8.960;2023-04-01T11:48:51;95892.88;;;12.65;59.46
3150;BME280;32503;47.748;8.960;2023-04-01T11:51:50;95874.72;;;12.62;58.61
3150;BME280;32503;47.748;8.960;2023-04-01T11:54:38;95889.38;;;12.75;57.56
3150;BME280;32503;47.748;8.960;2023-04-01T11:57:38;95897.13;;;12.77;57.57
3150;BME280;32503;47.748;8.960;2023-04-01T12:06:53;95900.22;;;12.79;56.72
3150;BME280;32503;47.748;8.960;2023-04-01T12:09:34;95917.28;;;12.72;57.05
3150;BME280;32503;47.748;8.960;2023-04-01T12:12:14;95909.09;;;12.86;57.29
3150;BME280;32503;47.748;8.960;2023-04-01T12:14:59;95908.34;;;12.75;57.75
3150;BME280;32503;47.748;8.960;2023-04-01T12:17:37;95911.44;;;12.77;56.72
3150;BME280;32503;47.748;8.960;2023-04-01T12:20:28;95919.19;;;12.79;57.66
3150;BME280;32503;47.748;8.960;2023-04-01T12:23:10;95936.25;;;12.72;58.15
3150;BME280;32503;47.748;8.960;2023-04-01T12:26:19;95938.59;;;12.63;57.94
3150;BME280;32503;47.748;8.960;2023-04-01T12:29:07;95944.00;;;12.74;57.57
3150;BME280;32503;47.748;8.960;2023-04-01T12:31:45;95933.94;;;12.70;56.02
3150;BME280;32503;47.748;8.960;2023-04-01T12:34:49;95928.50;;;12.85;55.95
3150;BME280;32503;47.748;8.960;2023-04-01T12:37:33;95924.19;;;12.95;55.46
3150;BME280;32503;47.748;8.960;2023-04-01T12:40:28;95925.38;;;12.94;54.68
3150;BME280;32503;47.748;8.960;2023-04-01T12:43:11;95922.25;;;12.92;55.50
3150;BME280;32503;47.748;8.960;2023-04-01T12:45:52;95919.19;;;12.82;55.22
3150;BME280;32503;47.748;8.960;2023-04-01T12:57:34;95924.56;;;12.97;55.49
3150;BME280;32503;47.748;8.960;2023-04-01T13:00:27;95923.44;;;12.94;55.03
3150;BME280;32503;47.748;8.960;2023-04-01T13:03:16;95938.09;;;13.04;55.51
3150;BME280;32503;47.748;8.960;2023-04-01T13:09:05;95924.50;;;13.11;55.95
3150;BME280;32503;47.748;8.960;2023-04-01T13:11:51;95927.63;;;13.13;56.49
3150;BME280;32503;47.748;8.960;2023-04-01T13:17:36;95904.34;;;13.16;56.03
3150;BME280;32503;47.748;8.960;2023-04-01T13:20:19;95936.88;;;13.23;56.28
3150;BME280;32503;47.748;8.960;2023-04-01T13:23:02;95933.00;;;13.31;55.69
3150;BME280;32503;47.748;8.960;2023-04-01T13:25:40;95929.91;;;13.29;55.41
3150;BME280;32503;47.748;8.960;2023-04-01T13:28:17;95918.34;;;13.07;54.94
3150;BME280;32503;47.748;8.960;2023-04-01T13:30:54;95917.22;;;13.01;55.41
3150;BME280;32503;47.748;8.960;2023-04-01T13:33:33;95928.06;;;13.01;55.56
3150;BME280;32503;47.748;8.960;2023-04-01T13:36:17;95931.56;;;12.94;55.31
3150;BME280;32503;47.748;8.960;2023-04-01T13:39:35;95924.59;;;12.86;55.69
3150;BME280;32503;47.748;8.960;2023-04-01T13:42:23;95919.56;;;12.84;56.04
3150;BME280;32503;47.748;8.960;2023-04-01T13:45:00;95925.78;;;12.81;55.86
3150;BME280;32503;47.748;8.960;2023-04-01T13:51:10;95943.19;;;12.95;56.70
3150;BME280;32503;47.748;8.960;2023-04-01T13:57:14;95947.06;;;12.86;58.71
3150;BME280;32503;47.748;8.960;2023-04-01T14:00:06;95929.72;;;12.59;60.33
3150;BME280;32503;47.748;8.960;2023-04-01T14:02:57;95947.91;;;12.62;61.31
3150;BME280;32503;47.748;8.960;2023-04-01T14:05:50;95952.16;;;12.56;61.71
3150;BME280;32503;47.748;8.960;2023-04-01T14:08:41;95941.69;;;12.58;61.38
3150;BME280;32503;47.748;8.960;2023-04-01T14:11:17;95917.69;;;12.52;62.02
3150;BME280;32503;47.748;8.960;2023-04-01T14:13:58;95930.47;;;12.63;61.89
3150;BME280;32503;47.748;8.960;2023-04-01T14:17:01;95922.69;;;12.72;61.82
3150;BME280;32503;47.748;8.960;2023-04-01T14:20:17;95901.00;;;12.68;61.32
3150;BME280;32503;47.748;8.960;2023-04-01T14:23:05;95917.63;;;12.88;61.14
3150;BME280;32503;47.748;8.960;2023-04-01T14:26:01;95913.34;;;12.95;61.01
3150;BME280;32503;47.748;8.960;2023-04-01T14:28:37;95909.06;;;13.04;60.83
3150;BME280;32503;47.748;8.960;2023-04-01T14:31:27;95900.13;;;13.00;60.08
3150;BME280;32503;47.748;8.960;2023-04-01T14:34:14;95916.38;;;13.18;60.21
3150;BME280;32503;47.748;8.960;2023-04-01T14:36:53;95915.53;;;13.25;59.65
3150;BME280;32503;47.748;8.960;2023-04-01T14:39:55;95914.38;;;13.30;59.43
3150;BME280;32503;47.748;8.960;2023-04-01T14:42:55;95929.88;;;13.36;59.46
3150;BME280;32503;47.748;8.960;2023-04-01T14:45:46;95936.88;;;13.34;59.47
3150;BME280;32503;47.748;8.960;2023-04-01T14:48:25;95938.50;;;13.13;60.07
3150;BME280;32503;47.748;8.960;2023-04-01T14:51:03;95932.69;;;13.04;61.25
3150;BME280;32503;47.748;8.960;2023-04-01T14:53:38;95938.16;;;12.82;62.49
3150;BME280;32503;47.748;8.960;2023-04-01T14:56:11;95920.78;;;12.73;62.90
3150;BME280;32503;47.748;8.960;2023-04-01T14:58:45;95916.88;;;12.70;63.42
3150;BME280;32503;47.748;8.960;2023-04-01T15:01:30;95900.63;;;12.63;63.55
3150;BME280;32503;47.748;8.960;2023-04-01T15:07:11;95909.16;;;12.65;62.72
3150;BME280;32503;47.748;8.960;2023-04-01T15:09:52;95936.22;;;12.86;62.32
3150;BME280;32503;47.748;8.960;2023-04-01T15:12:30;95946.28;;;12.89;61.76
3150;BME280;32503;47.748;8.960;2023-04-01T15:15:20;95940.09;;;12.89;59.79
3150;BME280;32503;47.748;8.960;2023-04-01T15:18:07;95938.56;;;12.81;60.12
3150;BME280;32503;47.748;8.960;2023-04-01T15:20:56;95916.50;;;12.68;59.47
3150;BME280;32503;47.748;8.960;2023-04-01T15:23:41;95944.78;;;12.81;58.64
3150;BME280;32503;47.748;8.960;2023-04-01T15:26:33;95959.47;;;12.91;58.93
3150;BME280;32503;47.748;8.960;2023-04-01T15:29:24;95941.63;;;12.86;58.89
3150;BME280;32503;47.748;8.960;2023-04-01T15:31:55;95955.63;;;12.81;59.23
3150;BME280;32503;47.748;8.960;2023-04-01T15:34:33;95916.13;;;12.66;58.93
3150;BME280;32503;47.748;8.960;2023-04-01T15:37:12;95944.38;;;12.90;59.07
3150;BME280;32503;47.748;8.960;2023-04-01T15:39:54;95935.84;;;12.81;58.88
3150;BME280;32503;47.748;8.960;2023-04-01T15:42:36;95911.44;;;12.77;58.46
3150;BME280;32503;47.748;8.960;2023-04-01T15:45:18;95911.06;;;12.75;58.96
3150;BME280;32503;47.748;8.960;2023-04-01T15:47:59;95921.53;;;12.73;59.24
3150;BME280;32503;47.748;8.960;2023-04-01T15:50:51;95920.78;;;12.73;58.85